createdAt,value
2023-02-23T00:17:38.942Z,9.2
2023-02-23T00:36:57.855Z,9.3
2023-02-23T00:56:15.736Z,9
2023-02-23T01:15:35.449Z,8.7
2023-02-23T01:34:53.662Z,9
2023-02-23T01:54:13.634Z,8.9
2023-02-23T02:13:22.454Z,8.9
2023-02-23T02:32:41.394Z,8.7
2023-02-23T02:52:00.837Z,8.8
2023-02-23T03:11:18.532Z,8.8
2023-02-23T03:30:38.486Z,8.8
2023-02-23T03:49:58.152Z,8.7
2023-02-23T04:09:18.452Z,8.9
2023-02-23T04:28:38.350Z,8.9
2023-02-23T04:47:57.979Z,8.9
2023-02-23T05:07:17.056Z,8.8
2023-02-23T05:26:36.928Z,9
2023-02-23T05:45:55.788Z,9
2023-02-23T06:05:15.188Z,9
2023-02-23T06:24:35.223Z,9.1
2023-02-23T06:43:51.957Z,9.1
2023-02-23T07:03:12.117Z,9
2023-02-23T07:22:30.596Z,9.1
2023-02-23T07:41:50.380Z,9.1
2023-02-23T08:01:11.100Z,9.2
2023-02-23T08:20:29.670Z,9.4
2023-02-23T08:39:49.201Z,9.3
2023-02-23T08:59:10.199Z,9.4
2023-02-23T09:18:29.694Z,9.4
2023-02-23T09:37:50.176Z,9.3
2023-02-23T09:57:10.161Z,9.4
2023-02-23T10:16:28.168Z,9.4
2023-02-23T10:35:47.195Z,9.1
2023-02-23T10:55:05.036Z,9
2023-02-23T11:14:25.281Z,9.3
2023-02-23T11:33:45.228Z,9.5
2023-02-23T11:53:04.431Z,9.5
2023-02-23T12:12:24.787Z,9.7
2023-02-23T12:31:46.084Z,9.9
2023-02-23T12:51:04.934Z,9.6
2023-02-23T13:10:24.849Z,9.6
2023-02-23T13:29:45.438Z,9.8
2023-02-23T13:49:02.947Z,9.5
2023-02-23T14:08:22.216Z,9.3
2023-02-23T14:27:42.132Z,9.3
2023-02-23T14:47:01.820Z,9.2
2023-02-23T15:06:21.352Z,8.9
2023-02-23T15:25:39.568Z,8.5
2023-02-23T15:44:57.760Z,8.6
2023-02-23T16:04:15.929Z,8.4
2023-02-23T16:23:35.646Z,8.2
2023-02-23T16:42:59.478Z,8.2
2023-02-23T17:02:17.505Z,8.2
2023-02-23T17:21:37.261Z,8.1
2023-02-23T17:40:52.588Z,8.1
2023-02-23T18:00:13.685Z,8.2
2023-02-23T18:19:33.857Z,8.1
2023-02-23T18:38:52.879Z,8
2023-02-23T18:58:12.938Z,7.9
2023-02-23T19:17:31.534Z,8
2023-02-23T19:36:51.526Z,7.9
2023-02-23T19:56:11.031Z,7.8
2023-02-23T20:15:26.649Z,7.5
2023-02-23T20:34:45.573Z,7.5
2023-02-23T20:54:05.392Z,7.5
2023-02-23T21:13:25.143Z,7.6
2023-02-23T21:32:42.903Z,7.5
2023-02-23T21:52:02.891Z,7.7
2023-02-23T22:11:22.974Z,7.4
2023-02-23T22:30:42.494Z,7.6
2023-02-23T22:50:01.607Z,7.5
2023-02-23T23:09:19.419Z,7.3
2023-02-23T23:28:39.187Z,7.2
2023-02-23T23:47:59.021Z,7.4
